sensor_id;sensor_type;location;lat;lon;timestamp;P1;durP1;ratioP1;P2;durP2;ratioP2
51907;SDS011;39320;53.214;6.556;2023-11-19T00:02:25;16.65;;;14.63;;
51907;SDS011;39320;53.214;6.556;2023-11-19T00:04:51;17.25;;;13.85;;
51907;SDS011;39320;53.214;6.556;2023-11-19T00:07:18;15.07;;;13.25;;
51907;SDS011;39320;53.214;6.556;2023-11-19T00:09:45;14.10;;;12.70;;
51907;SDS011;39320;53.214;6.556;2023-11-19T00:12:11;16.95;;;12.90;;
51907;SDS011;39320;53.214;6.556;2023-11-19T00:14:36;16.80;;;13.68;;
51907;SDS011;39320;53.214;6.556;2023-11-19T00:17:02;21.13;;;13.13;;
51907;SDS011;39320;53.214;6.556;2023-11-19T00:19:29;15.10;;;12.02;;
51907;SDS011;39320;53.214;6.556;2023-11-19T00:21:55;17.17;;;12.85;;
51907;SDS011;39320;53.214;6.556;2023-11-19T00:24:20;14.13;;;10.82;;
51907;SDS011;39320;53.214;6.556;2023-11-19T00:26:46;15.23;;;11.25;;
51907;SDS011;39320;53.214;6.556;2023-11-19T00:29:12;14.27;;;10.50;;
51907;SDS011;39320;53.214;6.556;2023-11-19T00:31:39;16.35;;;10.70;;
51907;SDS011;39320;53.214;6.556;2023-11-19T00:34:04;13.88;;;9.18;;
51907;SDS011;39320;53.214;6.556;2023-11-19T00:36:31;12.68;;;9.13;;
51907;SDS011;39320;53.214;6.556;2023-11-19T00:38:57;15.73;;;9.18;;
51907;SDS011;39320;53.214;6.556;2023-11-19T00:41:23;10.98;;;9.13;;
51907;SDS011;39320;53.214;6.556;2023-11-19T00:43:50;16.60;;;8.38;;
51907;SDS011;39320;53.214;6.556;2023-11-19T00:46:16;8.98;;;7.70;;
51907;SDS011;39320;53.214;6.556;2023-11-19T00:48:42;12.73;;;8.05;;
51907;SDS011;39320;53.214;6.556;2023-11-19T00:51:07;11.98;;;7.35;;
51907;SDS011;39320;53.214;6.556;2023-11-19T00:53:33;11.05;;;6.80;;
51907;SDS011;39320;53.214;6.556;2023-11-19T00:55:59;11.75;;;7.10;;
51907;SDS011;39320;53.214;6.556;2023-11-19T00:58:25;12.25;;;6.80;;
51907;SDS011;39320;53.214;6.556;2023-11-19T01:00:52;13.00;;;6.10;;
51907;SDS011;39320;53.214;6.556;2023-11-19T01:03:17;10.90;;;6.50;;
51907;SDS011;39320;53.214;6.556;2023-11-19T01:05:43;10.95;;;6.10;;
51907;SDS011;39320;53.214;6.556;2023-11-19T01:08:09;14.80;;;7.30;;
51907;SDS011;39320;53.214;6.556;2023-11-19T01:10:38;13.00;;;6.45;;
51907;SDS011;39320;53.214;6.556;2023-11-19T01:13:04;12.60;;;6.15;;
51907;SDS011;39320;53.214;6.556;2023-11-19T01:15:33;9.60;;;5.00;;
51907;SDS011;39320;53.214;6.556;2023-11-19T01:17:58;12.98;;;4.65;;
51907;SDS011;39320;53.214;6.556;2023-11-19T01:20:24;8.50;;;4.60;;
51907;SDS011;39320;53.214;6.556;2023-11-19T01:22:51;7.90;;;4.47;;
51907;SDS011;39320;53.214;6.556;2023-11-19T01:25:17;11.43;;;4.95;;
51907;SDS011;39320;53.214;6.556;2023-11-19T01:27:43;10.65;;;4.63;;
51907;SDS011;39320;53.214;6.556;2023-11-19T01:30:08;13.50;;;4.78;;
51907;SDS011;39320;53.214;6.556;2023-11-19T01:32:38;11.82;;;4.60;;
51907;SDS011;39320;53.214;6.556;2023-11-19T01:35:05;11.32;;;4.45;;
51907;SDS011;39320;53.214;6.556;2023-11-19T01:37:31;8.43;;;4.65;;
51907;SDS011;39320;53.214;6.556;2023-11-19T01:39:57;10.60;;;4.93;;
51907;SDS011;39320;53.214;6.556;2023-11-19T01:42:23;8.80;;;4.60;;
51907;SDS011;39320;53.214;6.556;2023-11-19T01:45:00;9.63;;;5.45;;
51907;SDS011;39320;53.214;6.556;2023-11-19T01:47:29;11.43;;;4.82;;
51907;SDS011;39320;53.214;6.556;2023-11-19T01:49:56;10.25;;;4.30;;
51907;SDS011;39320;53.214;6.556;2023-11-19T01:52:24;10.15;;;4.53;;
51907;SDS011;39320;53.214;6.556;2023-11-19T01:54:51;10.30;;;4.35;;
51907;SDS011;39320;53.214;6.556;2023-11-19T01:57:19;7.43;;;3.95;;
51907;SDS011;39320;53.214;6.556;2023-11-19T01:59:48;11.65;;;4.68;;
51907;SDS011;39320;53.214;6.556;2023-11-19T02:02:16;9.48;;;4.43;;
51907;SDS011;39320;53.214;6.556;2023-11-19T02:04:46;10.50;;;4.68;;
51907;SDS011;39320;53.214;6.556;2023-11-19T02:07:13;7.32;;;3.97;;
51907;SDS011;39320;53.214;6.556;2023-11-19T02:09:42;12.43;;;4.28;;
51907;SDS011;39320;53.214;6.556;2023-11-19T02:12:08;10.45;;;4.35;;
51907;SDS011;39320;53.214;6.556;2023-11-19T02:14:36;8.50;;;4.30;;
51907;SDS011;39320;53.214;6.556;2023-11-19T02:17:02;10.13;;;5.03;;
51907;SDS011;39320;53.214;6.556;2023-11-19T02:19:29;12.77;;;4.70;;
51907;SDS011;39320;53.214;6.556;2023-11-19T02:21:55;8.48;;;4.30;;
51907;SDS011;39320;53.214;6.556;2023-11-19T02:24:21;7.47;;;4.63;;
51907;SDS011;39320;53.214;6.556;2023-11-19T02:29:21;11.23;;;4.70;;
51907;SDS011;39320;53.214;6.556;2023-11-19T02:31:47;10.60;;;4.63;;
51907;SDS011;39320;53.214;6.556;2023-11-19T02:34:13;9.25;;;4.80;;
51907;SDS011;39320;53.214;6.556;2023-11-19T02:36:39;9.15;;;4.78;;
51907;SDS011;39320;53.214;6.556;2023-11-19T02:39:06;11.35;;;4.88;;
51907;SDS011;39320;53.214;6.556;2023-11-19T02:41:36;10.05;;;4.72;;
51907;SDS011;39320;53.214;6.556;2023-11-19T02:44:05;10.40;;;4.75;;
51907;SDS011;39320;53.214;6.556;2023-11-19T02:46:31;13.77;;;5.22;;
51907;SDS011;39320;53.214;6.556;2023-11-19T02:48:57;8.90;;;3.90;;
51907;SDS011;39320;53.214;6.556;2023-11-19T02:51:23;10.88;;;4.28;;
51907;SDS011;39320;53.214;6.556;2023-11-19T02:53:49;8.63;;;4.03;;
51907;SDS011;39320;53.214;6.556;2023-11-19T02:56:14;13.13;;;4.28;;
51907;SDS011;39320;53.214;6.556;2023-11-19T02:58:45;9.73;;;4.70;;
51907;SDS011;39320;53.214;6.556;2023-11-19T03:01:11;9.68;;;4.63;;
51907;SDS011;39320;53.214;6.556;2023-11-19T03:03:44;7.68;;;4.50;;
51907;SDS011;39320;53.214;6.556;2023-11-19T03:06:14;7.88;;;3.92;;
51907;SDS011;39320;53.214;6.556;2023-11-19T03:08:41;8.50;;;3.95;;
51907;SDS011;39320;53.214;6.556;2023-11-19T03:11:06;10.65;;;4.85;;
51907;SDS011;39320;53.214;6.556;2023-11-19T03:13:34;11.13;;;4.07;;
51907;SDS011;39320;53.214;6.556;2023-11-19T03:15:59;9.70;;;4.65;;
51907;SDS011;39320;53.214;6.556;2023-11-19T03:18:25;10.77;;;4.45;;
51907;SDS011;39320;53.214;6.556;2023-11-19T03:20:52;9.52;;;4.28;;
51907;SDS011;39320;53.214;6.556;2023-11-19T03:23:18;11.68;;;3.97;;
51907;SDS011;39320;53.214;6.556;2023-11-19T03:25:43;7.20;;;4.32;;
51907;SDS011;39320;53.214;6.556;2023-11-19T03:28:09;9.43;;;3.58;;
51907;SDS011;39320;53.214;6.556;2023-11-19T03:30:36;9.52;;;4.47;;
51907;SDS011;39320;53.214;6.556;2023-11-19T03:33:02;7.38;;;3.80;;
51907;SDS011;39320;53.214;6.556;2023-11-19T03:35:28;9.02;;;4.18;;
51907;SDS011;39320;53.214;6.556;2023-11-19T03:37:54;10.90;;;5.18;;
51907;SDS011;39320;53.214;6.556;2023-11-19T03:40:19;9.60;;;4.60;;
51907;SDS011;39320;53.214;6.556;2023-11-19T03:42:46;10.48;;;4.90;;
51907;SDS011;39320;53.214;6.556;2023-11-19T03:45:11;6.63;;;3.88;;
51907;SDS011;39320;53.214;6.556;2023-11-19T03:47:37;12.32;;;4.72;;
51907;SDS011;39320;53.214;6.556;2023-11-19T03:50:04;8.38;;;4.53;;
51907;SDS011;39320;53.214;6.556;2023-11-19T03:52:30;8.80;;;5.15;;
51907;SDS011;39320;53.214;6.556;2023-11-19T03:54:56;8.95;;;4.03;;
51907;SDS011;39320;53.214;6.556;2023-11-19T03:57:22;10.77;;;4.70;;
51907;SDS011;39320;53.214;6.556;2023-11-19T03:59:48;11.40;;;4.28;;
51907;SDS011;39320;53.214;6.556;2023-11-19T04:02:14;13.13;;;4.60;;
51907;SDS011;39320;53.214;6.556;2023-11-19T04:04:40;11.38;;;3.83;;
51907;SDS011;39320;53.214;6.556;2023-11-19T04:07:06;9.32;;;4.43;;
51907;SDS011;39320;53.214;6.556;2023-11-19T04:09:33;13.38;;;5.35;;
51907;SDS011;39320;53.214;6.556;2023-11-19T04:11:59;12.27;;;5.03;;
51907;SDS011;39320;53.214;6.556;2023-11-19T04:14:25;9.32;;;4.18;;
51907;SDS011;39320;53.214;6.556;2023-11-19T04:16:52;7.63;;;4.10;;
51907;SDS011;39320;53.214;6.556;2023-11-19T04:19:18;10.27;;;4.57;;
51907;SDS011;39320;53.214;6.556;2023-11-19T04:21:44;8.65;;;4.45;;
51907;SDS011;39320;53.214;6.556;2023-11-19T04:24:13;9.52;;;4.40;;
51907;SDS011;39320;53.214;6.556;2023-11-19T04:26:43;9.55;;;4.40;;
51907;SDS011;39320;53.214;6.556;2023-11-19T04:29:11;9.10;;;4.57;;
51907;SDS011;39320;53.214;6.556;2023-11-19T04:31:37;10.43;;;4.97;;
51907;SDS011;39320;53.214;6.556;2023-11-19T04:34:04;8.23;;;4.25;;
51907;SDS011;39320;53.214;6.556;2023-11-19T04:36:31;8.05;;;4.80;;
51907;SDS011;39320;53.214;6.556;2023-11-19T04:38:58;10.35;;;4.20;;
51907;SDS011;39320;53.214;6.556;2023-11-19T04:41:25;10.77;;;4.68;;
51907;SDS011;39320;53.214;6.556;2023-11-19T04:43:52;9.20;;;4.82;;
51907;SDS011;39320;53.214;6.556;2023-11-19T04:46:19;9.15;;;4.72;;
51907;SDS011;39320;53.214;6.556;2023-11-19T04:48:45;13.27;;;5.13;;
51907;SDS011;39320;53.214;6.556;2023-11-19T04:51:10;12.18;;;4.72;;
51907;SDS011;39320;53.214;6.556;2023-11-19T04:53:36;11.88;;;5.03;;
51907;SDS011;39320;53.214;6.556;2023-11-19T04:56:07;9.48;;;4.65;;
51907;SDS011;39320;53.214;6.556;2023-11-19T04:58:39;9.32;;;4.28;;
51907;SDS011;39320;53.214;6.556;2023-11-19T05:01:05;8.95;;;4.90;;
51907;SDS011;39320;53.214;6.556;2023-11-19T05:03:31;9.75;;;5.13;;
51907;SDS011;39320;53.214;6.556;2023-11-19T05:05:57;7.63;;;4.97;;
51907;SDS011;39320;53.214;6.556;2023-11-19T05:08:24;8.68;;;4.50;;
51907;SDS011;39320;53.214;6.556;2023-11-19T05:10:50;8.93;;;4.65;;
51907;SDS011;39320;53.214;6.556;2023-11-19T05:13:15;10.88;;;4.68;;
51907;SDS011;39320;53.214;6.556;2023-11-19T05:15:42;10.65;;;4.78;;
51907;SDS011;39320;53.214;6.556;2023-11-19T05:18:07;9.90;;;4.65;;
51907;SDS011;39320;53.214;6.556;2023-11-19T05:20:34;10.75;;;4.75;;
51907;SDS011;39320;53.214;6.556;2023-11-19T05:22:59;10.38;;;4.72;;
51907;SDS011;39320;53.214;6.556;2023-11-19T05:25:26;12.30;;;5.53;;
51907;SDS011;39320;53.214;6.556;2023-11-19T05:27:52;9.07;;;4.57;;
51907;SDS011;39320;53.214;6.556;2023-11-19T05:30:18;15.10;;;5.53;;
51907;SDS011;39320;53.214;6.556;2023-11-19T05:32:44;8.65;;;4.95;;
51907;SDS011;39320;53.214;6.556;2023-11-19T05:35:10;10.52;;;4.90;;
51907;SDS011;39320;53.214;6.556;2023-11-19T05:37:36;10.80;;;4.95;;
51907;SDS011;39320;53.214;6.556;2023-11-19T05:40:02;8.75;;;5.07;;
51907;SDS011;39320;53.214;6.556;2023-11-19T05:42:29;10.93;;;4.60;;
51907;SDS011;39320;53.214;6.556;2023-11-19T05:44:55;11.85;;;4.65;;
51907;SDS011;39320;53.214;6.556;2023-11-19T05:47:21;14.63;;;4.93;;
51907;SDS011;39320;53.214;6.556;2023-11-19T05:49:47;11.13;;;4.88;;
51907;SDS011;39320;53.214;6.556;2023-11-19T05:52:13;8.80;;;4.97;;
51907;SDS011;39320;53.214;6.556;2023-11-19T05:54:38;8.30;;;3.97;;
51907;SDS011;39320;53.214;6.556;2023-11-19T05:57:04;10.77;;;5.30;;
51907;SDS011;39320;53.214;6.556;2023-11-19T05:59:30;11.18;;;4.95;;
51907;SDS011;39320;53.214;6.556;2023-11-19T06:01:58;8.98;;;5.10;;
51907;SDS011;39320;53.214;6.556;2023-11-19T06:04:23;9.25;;;4.80;;
51907;SDS011;39320;53.214;6.556;2023-11-19T06:06:49;7.95;;;4.97;;
51907;SDS011;39320;53.214;6.556;2023-11-19T06:09:15;14.13;;;5.53;;
51907;SDS011;39320;53.214;6.556;2023-11-19T06:11:43;12.23;;;5.68;;
51907;SDS011;39320;53.214;6.556;2023-11-19T06:14:09;11.68;;;5.10;;
51907;SDS011;39320;53.214;6.556;2023-11-19T06:16:36;8.55;;;4.45;;
51907;SDS011;39320;53.214;6.556;2023-11-19T06:19:04;10.77;;;4.82;;
51907;SDS011;39320;53.214;6.556;2023-11-19T06:21:30;10.40;;;5.38;;
51907;SDS011;39320;53.214;6.556;2023-11-19T06:23:56;11.80;;;5.18;;
51907;SDS011;39320;53.214;6.556;2023-11-19T06:26:22;12.40;;;5.32;;
51907;SDS011;39320;53.214;6.556;2023-11-19T06:28:48;10.13;;;5.07;;
51907;SDS011;39320;53.214;6.556;2023-11-19T06:31:14;7.95;;;4.40;;
51907;SDS011;39320;53.214;6.556;2023-11-19T06:33:41;9.15;;;4.85;;
51907;SDS011;39320;53.214;6.556;2023-11-19T06:36:08;8.25;;;4.80;;
51907;SDS011;39320;53.214;6.556;2023-11-19T06:38:34;7.78;;;4.70;;
51907;SDS011;39320;53.214;6.556;2023-11-19T06:41:00;13.68;;;5.47;;
51907;SDS011;39320;53.214;6.556;2023-11-19T06:43:26;9.65;;;5.68;;
51907;SDS011;39320;53.214;6.556;2023-11-19T06:45:53;11.90;;;4.82;;
51907;SDS011;39320;53.214;6.556;2023-11-19T06:48:19;10.05;;;4.97;;
51907;SDS011;39320;53.214;6.556;2023-11-19T06:50:45;10.60;;;4.18;;
51907;SDS011;39320;53.214;6.556;2023-11-19T06:53:11;10.38;;;4.35;;
51907;SDS011;39320;53.214;6.556;2023-11-19T06:55:36;10.70;;;5.28;;
51907;SDS011;39320;53.214;6.556;2023-11-19T06:58:02;10.68;;;4.47;;
51907;SDS011;39320;53.214;6.556;2023-11-19T07:00:28;8.50;;;4.28;;
51907;SDS011;39320;53.214;6.556;2023-11-19T07:02:58;9.93;;;4.95;;
51907;SDS011;39320;53.214;6.556;2023-11-19T07:05:24;12.05;;;5.10;;
51907;SDS011;39320;53.214;6.556;2023-11-19T07:07:51;9.73;;;5.07;;
51907;SDS011;39320;53.214;6.556;2023-11-19T07:10:17;8.80;;;4.80;;
51907;SDS011;39320;53.214;6.556;2023-11-19T07:12:43;13.02;;;5.75;;
51907;SDS011;39320;53.214;6.556;2023-11-19T07:15:10;9.25;;;4.90;;
51907;SDS011;39320;53.214;6.556;2023-11-19T07:17:35;11.98;;;5.85;;
51907;SDS011;39320;53.214;6.556;2023-11-19T07:20:05;9.15;;;4.65;;
51907;SDS011;39320;53.214;6.556;2023-11-19T07:22:31;10.43;;;5.03;;
51907;SDS011;39320;53.214;6.556;2023-11-19T07:24:56;8.73;;;4.25;;
51907;SDS011;39320;53.214;6.556;2023-11-19T07:27:23;9.18;;;4.40;;
51907;SDS011;39320;53.214;6.556;2023-11-19T07:29:49;13.00;;;5.85;;
51907;SDS011;39320;53.214;6.556;2023-11-19T07:32:15;14.30;;;4.45;;
51907;SDS011;39320;53.214;6.556;2023-11-19T07:34:40;10.50;;;5.07;;
51907;SDS011;39320;53.214;6.556;2023-11-19T07:37:06;12.95;;;5.32;;
51907;SDS011;39320;53.214;6.556;2023-11-19T07:39:32;10.35;;;5.10;;
51907;SDS011;39320;53.214;6.556;2023-11-19T07:41:59;8.82;;;4.72;;
51907;SDS011;39320;53.214;6.556;2023-11-19T07:44:25;9.30;;;5.07;;
51907;SDS011;39320;53.214;6.556;2023-11-19T07:46:51;9.63;;;4.45;;
51907;SDS011;39320;53.214;6.556;2023-11-19T07:49:16;8.85;;;4.82;;
51907;SDS011;39320;53.214;6.556;2023-11-19T07:51:42;12.48;;;5.80;;
51907;SDS011;39320;53.214;6.556;2023-11-19T07:54:08;10.75;;;4.15;;
51907;SDS011;39320;53.214;6.556;2023-11-19T07:56:34;11.40;;;4.88;;
51907;SDS011;39320;53.214;6.556;2023-11-19T07:59:01;8.18;;;4.85;;
51907;SDS011;39320;53.214;6.556;2023-11-19T08:01:29;10.75;;;4.78;;
51907;SDS011;39320;53.214;6.556;2023-11-19T08:03:55;11.27;;;5.60;;
51907;SDS011;39320;53.214;6.556;2023-11-19T08:06:21;11.10;;;4.63;;
51907;SDS011;39320;53.214;6.556;2023-11-19T08:08:47;10.63;;;5.07;;
51907;SDS011;39320;53.214;6.556;2023-11-19T08:11:13;7.65;;;4.25;;
51907;SDS011;39320;53.214;6.556;2023-11-19T08:13:40;10.05;;;4.78;;
51907;SDS011;39320;53.214;6.556;2023-11-19T08:16:07;7.05;;;4.25;;
51907;SDS011;39320;53.214;6.556;2023-11-19T08:18:32;10.18;;;5.05;;
51907;SDS011;39320;53.214;6.556;2023-11-19T08:20:58;11.95;;;4.75;;
51907;SDS011;39320;53.214;6.556;2023-11-19T08:23:25;9.30;;;4.30;;
51907;SDS011;39320;53.214;6.556;2023-11-19T08:25:53;8.20;;;4.38;;
51907;SDS011;39320;53.214;6.556;2023-11-19T08:28:19;11.48;;;4.82;;
51907;SDS011;39320;53.214;6.556;2023-11-19T08:30:45;11.27;;;5.60;;
51907;SDS011;39320;53.214;6.556;2023-11-19T08:33:11;12.10;;;5.93;;
51907;SDS011;39320;53.214;6.556;2023-11-19T08:35:37;13.05;;;4.95;;
51907;SDS011;39320;53.214;6.556;2023-11-19T08:38:03;9.40;;;4.72;;
51907;SDS011;39320;53.214;6.556;2023-11-19T08:40:28;10.82;;;4.72;;
51907;SDS011;39320;53.214;6.556;2023-11-19T08:42:55;9.10;;;4.80;;
51907;SDS011;39320;53.214;6.556;2023-11-19T08:45:23;8.30;;;4.97;;
51907;SDS011;39320;53.214;6.556;2023-11-19T08:47:48;10.30;;;5.25;;
51907;SDS011;39320;53.214;6.556;2023-11-19T08:50:14;8.05;;;4.43;;
51907;SDS011;39320;53.214;6.556;2023-11-19T08:52:40;8.50;;;3.97;;
51907;SDS011;39320;53.214;6.556;2023-11-19T08:55:08;11.98;;;4.82;;
51907;SDS011;39320;53.214;6.556;2023-11-19T08:57:35;8.02;;;4.88;;
51907;SDS011;39320;53.214;6.556;2023-11-19T09:00:01;13.85;;;5.55;;
51907;SDS011;39320;53.214;6.556;2023-11-19T09:02:32;9.70;;;4.68;;
51907;SDS011;39320;53.214;6.556;2023-11-19T09:04:59;11.30;;;4.85;;
51907;SDS011;39320;53.214;6.556;2023-11-19T09:07:25;10.25;;;4.68;;
51907;SDS011;39320;53.214;6.556;2023-11-19T09:09:53;10.15;;;4.45;;
51907;SDS011;39320;53.214;6.556;2023-11-19T09:12:22;13.52;;;5.25;;
51907;SDS011;39320;53.214;6.556;2023-11-19T09:14:48;10.68;;;5.03;;
51907;SDS011;39320;53.214;6.556;2023-11-19T09:17:14;7.72;;;4.32;;
51907;SDS011;39320;53.214;6.556;2023-11-19T09:19:40;9.68;;;4.60;;
51907;SDS011;39320;53.214;6.556;2023-11-19T09:22:07;9.52;;;4.80;;
51907;SDS011;39320;53.214;6.556;2023-11-19T09:24:32;10.57;;;5.30;;
51907;SDS011;39320;53.214;6.556;2023-11-19T09:27:01;15.18;;;5.25;;
51907;SDS011;39320;53.214;6.556;2023-11-19T09:29:27;11.65;;;5.45;;
51907;SDS011;39320;53.214;6.556;2023-11-19T09:31:53;10.82;;;5.10;;
51907;SDS011;39320;53.214;6.556;2023-11-19T09:34:19;14.27;;;4.82;;
51907;SDS011;39320;53.214;6.556;2023-11-19T09:36:45;8.52;;;4.63;;
51907;SDS011;39320;53.214;6.556;2023-11-19T09:39:11;10.90;;;4.60;;
51907;SDS011;39320;53.214;6.556;2023-11-19T09:41:40;11.38;;;5.22;;
51907;SDS011;39320;53.214;6.556;2023-11-19T09:44:07;13.23;;;5.03;;
51907;SDS011;39320;53.214;6.556;2023-11-19T09:46:34;10.07;;;4.88;;
51907;SDS011;39320;53.214;6.556;2023-11-19T09:49:01;11.15;;;5.18;;
51907;SDS011;39320;53.214;6.556;2023-11-19T09:51:29;10.55;;;4.85;;
51907;SDS011;39320;53.214;6.556;2023-11-19T09:53:55;7.05;;;4.15;;
51907;SDS011;39320;53.214;6.556;2023-11-19T09:56:21;10.30;;;5.03;;
51907;SDS011;39320;53.214;6.556;2023-11-19T09:58:48;10.60;;;5.40;;
51907;SDS011;39320;53.214;6.556;2023-11-19T10:01:13;9.75;;;4.15;;
51907;SDS011;39320;53.214;6.556;2023-11-19T10:03:39;7.85;;;4.55;;
51907;SDS011;39320;53.214;6.556;2023-11-19T10:06:09;11.55;;;4.78;;
51907;SDS011;39320;53.214;6.556;2023-11-19T10:08:39;12.63;;;5.13;;
51907;SDS011;39320;53.214;6.556;2023-11-19T10:11:08;8.43;;;4.45;;
51907;SDS011;39320;53.214;6.556;2023-11-19T10:13:37;12.70;;;4.65;;
51907;SDS011;39320;53.214;6.556;2023-11-19T10:16:10;11.85;;;4.55;;
51907;SDS011;39320;53.214;6.556;2023-11-19T10:18:42;11.60;;;4.72;;
51907;SDS011;39320;53.214;6.556;2023-11-19T10:21:11;11.60;;;4.82;;
51907;SDS011;39320;53.214;6.556;2023-11-19T10:23:51;7.25;;;4.10;;
51907;SDS011;39320;53.214;6.556;2023-11-19T10:26:19;10.45;;;4.95;;
51907;SDS011;39320;53.214;6.556;2023-11-19T10:28:46;7.93;;;4.82;;
51907;SDS011;39320;53.214;6.556;2023-11-19T10:31:13;8.38;;;4.68;;
51907;SDS011;39320;53.214;6.556;2023-11-19T10:33:39;11.27;;;4.68;;
51907;SDS011;39320;53.214;6.556;2023-11-19T10:36:05;9.93;;;4.30;;
51907;SDS011;39320;53.214;6.556;2023-11-19T10:38:32;6.82;;;4.30;;
51907;SDS011;39320;53.214;6.556;2023-11-19T10:40:58;10.40;;;5.13;;
51907;SDS011;39320;53.214;6.556;2023-11-19T10:43:24;7.20;;;3.88;;
51907;SDS011;39320;53.214;6.556;2023-11-19T10:45:51;10.38;;;4.65;;
51907;SDS011;39320;53.214;6.556;2023-11-19T10:48:17;7.55;;;4.15;;
51907;SDS011;39320;53.214;6.556;2023-11-19T10:50:44;10.95;;;4.15;;
51907;SDS011;39320;53.214;6.556;2023-11-19T10:53:11;12.50;;;4.78;;
51907;SDS011;39320;53.214;6.556;2023-11-19T10:55:43;10.38;;;5.00;;
51907;SDS011;39320;53.214;6.556;2023-11-19T10:58:12;8.98;;;3.90;;
51907;SDS011;39320;53.214;6.556;2023-11-19T11:00:47;9.35;;;4.28;;
51907;SDS011;39320;53.214;6.556;2023-11-19T11:03:21;7.97;;;3.67;;
51907;SDS011;39320;53.214;6.556;2023-11-19T11:05:50;9.32;;;4.57;;
51907;SDS011;39320;53.214;6.556;2023-11-19T11:08:17;11.80;;;4.10;;
51907;SDS011;39320;53.214;6.556;2023-11-19T11:10:53;8.40;;;4.70;;
51907;SDS011;39320;53.214;6.556;2023-11-19T11:13:20;6.03;;;3.40;;
51907;SDS011;39320;53.214;6.556;2023-11-19T11:15:49;9.95;;;4.10;;
51907;SDS011;39320;53.214;6.556;2023-11-19T11:18:16;8.15;;;3.88;;
51907;SDS011;39320;53.214;6.556;2023-11-19T11:20:46;8.93;;;4.05;;
51907;SDS011;39320;53.214;6.556;2023-11-19T11:34:07;7.47;;;3.83;;
51907;SDS011;39320;53.214;6.556;2023-11-19T11:42:39;7.22;;;3.38;;
51907;SDS011;39320;53.214;6.556;2023-11-19T11:45:02;9.23;;;4.32;;
51907;SDS011;39320;53.214;6.556;2023-11-19T11:48:03;10.02;;;4.55;;
51907;SDS011;39320;53.214;6.556;2023-11-19T11:50:33;6.90;;;3.97;;
51907;SDS011;39320;53.214;6.556;2023-11-19T11:55:35;7.32;;;3.83;;
51907;SDS011;39320;53.214;6.556;2023-11-19T11:58:02;8.45;;;3.63;;
51907;SDS011;39320;53.214;6.556;2023-11-19T12:02:56;10.18;;;4.28;;
51907;SDS011;39320;53.214;6.556;2023-11-19T12:05:25;8.70;;;3.70;;
51907;SDS011;39320;53.214;6.556;2023-11-19T12:08:00;9.57;;;3.85;;
51907;SDS011;39320;53.214;6.556;2023-11-19T12:10:31;8.68;;;4.78;;
51907;SDS011;39320;53.214;6.556;2023-11-19T12:13:02;8.85;;;4.43;;
51907;SDS011;39320;53.214;6.556;2023-11-19T12:16:08;7.25;;;3.67;;
51907;SDS011;39320;53.214;6.556;2023-11-19T12:18:27;12.02;;;5.05;;
51907;SDS011;39320;53.214;6.556;2023-11-19T12:20:57;8.73;;;3.70;;
51907;SDS011;39320;53.214;6.556;2023-11-19T12:23:28;8.70;;;3.83;;
51907;SDS011;39320;53.214;6.556;2023-11-19T12:25:55;8.50;;;4.32;;
51907;SDS011;39320;53.214;6.556;2023-11-19T12:28:21;7.40;;;4.20;;
51907;SDS011;39320;53.214;6.556;2023-11-19T12:30:49;7.22;;;3.63;;
51907;SDS011;39320;53.214;6.556;2023-11-19T12:33:16;5.95;;;3.60;;
51907;SDS011;39320;53.214;6.556;2023-11-19T12:35:43;8.52;;;4.10;;
51907;SDS011;39320;53.214;6.556;2023-11-19T12:41:07;8.00;;;4.13;;
51907;SDS011;39320;53.214;6.556;2023-11-19T12:43:38;6.68;;;3.88;;
51907;SDS011;39320;53.214;6.556;2023-11-19T12:46:20;8.75;;;3.58;;
51907;SDS011;39320;53.214;6.556;2023-11-19T12:48:47;11.23;;;3.78;;
51907;SDS011;39320;53.214;6.556;2023-11-19T12:51:14;10.45;;;4.57;;
51907;SDS011;39320;53.214;6.556;2023-11-19T12:53:49;6.50;;;3.28;;
51907;SDS011;39320;53.214;6.556;2023-11-19T12:56:23;10.68;;;4.07;;
51907;SDS011;39320;53.214;6.556;2023-11-19T12:58:50;9.68;;;3.70;;
51907;SDS011;39320;53.214;6.556;2023-11-19T13:01:19;8.70;;;4.03;;
51907;SDS011;39320;53.214;6.556;2023-11-19T13:03:45;7.95;;;3.60;;
51907;SDS011;39320;53.214;6.556;2023-11-19T13:06:13;8.63;;;4.13;;
51907;SDS011;39320;53.214;6.556;2023-11-19T13:08:46;7.43;;;3.38;;
51907;SDS011;39320;53.214;6.556;2023-11-19T13:11:35;6.20;;;3.80;;
51907;SDS011;39320;53.214;6.556;2023-11-19T13:14:02;7.15;;;3.45;;
51907;SDS011;39320;53.214;6.556;2023-11-19T13:16:33;9.50;;;3.80;;
51907;SDS011;39320;53.214;6.556;2023-11-19T13:19:02;8.25;;;3.03;;
51907;SDS011;39320;53.214;6.556;2023-11-19T13:21:28;8.48;;;3.90;;
51907;SDS011;39320;53.214;6.556;2023-11-19T13:23:55;9.40;;;3.85;;
51907;SDS011;39320;53.214;6.556;2023-11-19T13:26:21;8.65;;;3.83;;
51907;SDS011;39320;53.214;6.556;2023-11-19T13:28:47;5.22;;;3.60;;
51907;SDS011;39320;53.214;6.556;2023-11-19T13:31:13;9.10;;;3.35;;
51907;SDS011;39320;53.214;6.556;2023-11-19T13:33:39;12.90;;;3.63;;
51907;SDS011;39320;53.214;6.556;2023-11-19T13:36:05;10.73;;;3.72;;
51907;SDS011;39320;53.214;6.556;2023-11-19T13:38:33;8.18;;;3.65;;
51907;SDS011;39320;53.214;6.556;2023-11-19T13:41:00;5.80;;;3.25;;
51907;SDS011;39320;53.214;6.556;2023-11-19T13:43:27;7.55;;;4.03;;
51907;SDS011;39320;53.214;6.556;2023-11-19T13:45:55;8.50;;;3.40;;
51907;SDS011;39320;53.214;6.556;2023-11-19T13:48:22;6.90;;;3.90;;
51907;SDS011;39320;53.214;6.556;2023-11-19T13:50:48;10.13;;;3.70;;
51907;SDS011;39320;53.214;6.556;2023-11-19T13:53:17;8.45;;;3.53;;
51907;SDS011;39320;53.214;6.556;2023-11-19T13:55:45;8.90;;;3.90;;
51907;SDS011;39320;53.214;6.556;2023-11-19T13:58:11;8.70;;;3.60;;
51907;SDS011;39320;53.214;6.556;2023-11-19T14:00:37;8.95;;;3.75;;
51907;SDS011;39320;53.214;6.556;2023-11-19T14:03:03;6.47;;;3.88;;
51907;SDS011;39320;53.214;6.556;2023-11-19T14:05:29;7.55;;;3.33;;
51907;SDS011;39320;53.214;6.556;2023-11-19T14:07:54;6.47;;;3.42;;
51907;SDS011;39320;53.214;6.556;2023-11-19T14:10:21;7.05;;;3.45;;
51907;SDS011;39320;53.214;6.556;2023-11-19T14:12:47;6.95;;;3.20;;
51907;SDS011;39320;53.214;6.556;2023-11-19T14:15:15;5.55;;;3.13;;
51907;SDS011;39320;53.214;6.556;2023-11-19T14:17:44;9.10;;;3.35;;
51907;SDS011;39320;53.214;6.556;2023-11-19T14:20:10;6.10;;;3.10;;
51907;SDS011;39320;53.214;6.556;2023-11-19T14:22:40;8.07;;;3.85;;
51907;SDS011;39320;53.214;6.556;2023-11-19T14:25:08;7.65;;;3.83;;
51907;SDS011;39320;53.214;6.556;2023-11-19T14:27:38;8.57;;;4.35;;
51907;SDS011;39320;53.214;6.556;2023-11-19T14:30:05;7.32;;;3.15;;
51907;SDS011;39320;53.214;6.556;2023-11-19T14:32:32;9.38;;;3.65;;
51907;SDS011;39320;53.214;6.556;2023-11-19T14:34:58;5.72;;;3.85;;
51907;SDS011;39320;53.214;6.556;2023-11-19T14:37:24;7.43;;;3.13;;
51907;SDS011;39320;53.214;6.556;2023-11-19T14:39:50;9.27;;;3.80;;
51907;SDS011;39320;53.214;6.556;2023-11-19T14:42:18;7.93;;;3.72;;
51907;SDS011;39320;53.214;6.556;2023-11-19T14:44:44;7.55;;;3.58;;
51907;SDS011;39320;53.214;6.556;2023-11-19T14:47:10;7.07;;;3.67;;
51907;SDS011;39320;53.214;6.556;2023-11-19T14:49:36;8.63;;;3.60;;
51907;SDS011;39320;53.214;6.556;2023-11-19T14:52:04;6.45;;;3.05;;
51907;SDS011;39320;53.214;6.556;2023-11-19T14:54:30;5.18;;;3.55;;
51907;SDS011;39320;53.214;6.556;2023-11-19T14:56:56;6.32;;;3.40;;
51907;SDS011;39320;53.214;6.556;2023-11-19T14:59:22;8.73;;;3.40;;
51907;SDS011;39320;53.214;6.556;2023-11-19T15:01:48;7.78;;;3.60;;
51907;SDS011;39320;53.214;6.556;2023-11-19T15:04:14;8.77;;;3.08;;
51907;SDS011;39320;53.214;6.556;2023-11-19T15:06:41;6.00;;;3.45;;
51907;SDS011;39320;53.214;6.556;2023-11-19T15:09:06;6.88;;;3.75;;